createdAt,value
2019-02-21T00:01:43.058Z,72.30
2019-02-21T00:04:10.787Z,72.20
2019-02-21T00:06:38.248Z,72.40
2019-02-21T00:09:06.653Z,72.00
2019-02-21T00:11:35.925Z,71.60
2019-02-21T00:14:03.441Z,71.30
2019-02-21T00:16:30.874Z,70.80
2019-02-21T00:18:58.639Z,71.30
2019-02-21T00:21:26.281Z,71.10
2019-02-21T00:23:54.332Z,70.90
2019-02-21T00:26:21.847Z,71.20
2019-02-21T00:28:49.657Z,71.50
2019-02-21T00:31:17.280Z,72.10
2019-02-21T00:33:44.661Z,71.90
2019-02-21T00:36:12.039Z,72.00
2019-02-21T00:38:39.582Z,71.90
2019-02-21T00:41:07.564Z,72.40
2019-02-21T00:43:35.369Z,72.60
2019-02-21T00:46:02.881Z,72.60
2019-02-21T00:48:30.352Z,72.60
2019-02-21T00:50:57.972Z,72.80
2019-02-21T00:53:25.632Z,73.20
2019-02-21T00:55:53.632Z,73.40
2019-02-21T00:58:21.264Z,73.30
2019-02-21T01:00:49.236Z,72.70
2019-02-21T01:03:16.925Z,73.60
2019-02-21T01:05:44.302Z,73.10
2019-02-21T01:08:12.001Z,73.10
2019-02-21T01:10:39.697Z,73.30
2019-02-21T01:13:07.004Z,72.50
2019-02-21T01:15:34.504Z,72.20
2019-02-21T01:18:01.817Z,71.90
2019-02-21T01:20:29.835Z,71.60
2019-02-21T01:22:57.148Z,71.60
2019-02-21T01:25:24.622Z,71.70
2019-02-21T01:27:52.322Z,71.70
2019-02-21T01:30:19.684Z,71.90
2019-02-21T01:32:46.992Z,72.10
2019-02-21T01:35:14.659Z,72.00
2019-02-21T01:37:42.473Z,71.40
2019-02-21T01:40:10.082Z,71.80
2019-02-21T01:42:39.007Z,71.20
2019-02-21T01:45:06.512Z,71.20
2019-02-21T01:47:34.622Z,71.00
2019-02-21T01:50:02.392Z,70.90
2019-02-21T01:52:29.866Z,71.20
2019-02-21T01:54:57.784Z,72.00
2019-02-21T01:57:25.256Z,71.90
2019-02-21T01:59:52.916Z,72.20
2019-02-21T02:02:20.356Z,72.20
2019-02-21T02:04:47.973Z,72.20
2019-02-21T02:07:15.356Z,72.20
2019-02-21T02:09:42.817Z,73.10
2019-02-21T02:12:12.214Z,72.60
2019-02-21T02:14:39.588Z,72.50
2019-02-21T02:17:07.390Z,72.80
2019-02-21T02:19:34.761Z,72.50
2019-02-21T02:22:02.401Z,73.20
2019-02-21T02:24:29.801Z,73.90
2019-02-21T02:26:57.283Z,73.80
2019-02-21T02:29:24.788Z,73.70
2019-02-21T02:31:52.205Z,73.60
2019-02-21T02:34:19.983Z,73.40
2019-02-21T02:36:47.484Z,73.50
2019-02-21T02:39:14.858Z,73.50
2019-02-21T02:41:42.207Z,73.50
2019-02-21T02:44:09.693Z,73.70
2019-02-21T02:46:37.200Z,73.70
2019-02-21T02:49:04.587Z,73.40
2019-02-21T02:51:31.965Z,73.70
2019-02-21T02:53:59.745Z,73.70
2019-02-21T02:56:27.127Z,73.60
2019-02-21T02:58:54.495Z,73.20
2019-02-21T03:01:33.975Z,73.70
2019-02-21T03:03:51.814Z,74.10
2019-02-21T03:06:19.264Z,73.70
2019-02-21T03:08:47.286Z,73.70
2019-02-21T03:11:16.145Z,74.30
2019-02-21T03:13:44.023Z,74.80
2019-02-21T03:16:11.639Z,74.40
2019-02-21T03:18:38.952Z,75.40
2019-02-21T03:21:07.060Z,75.10
2019-02-21T03:23:34.796Z,74.60
2019-02-21T03:26:02.151Z,74.50
2019-02-21T03:28:30.221Z,74.10
2019-02-21T03:30:58.274Z,73.90
2019-02-21T03:33:25.751Z,73.60
2019-02-21T03:35:53.291Z,74.20
2019-02-21T03:38:20.824Z,74.60
2019-02-21T03:40:48.616Z,74.70
2019-02-21T03:43:17.188Z,75.20
2019-02-21T03:45:44.757Z,75.30
2019-02-21T03:48:12.370Z,75.10
2019-02-21T03:50:39.738Z,75.40
2019-02-21T03:53:07.526Z,76.20
2019-02-21T03:55:35.360Z,75.40
2019-02-21T03:58:02.867Z,74.80
2019-02-21T04:08:41.877Z,74.60
2019-02-21T04:11:09.583Z,74.30
2019-02-21T04:13:37.193Z,75.00
2019-02-21T04:16:04.688Z,74.80
2019-02-21T04:18:32.175Z,75.00
2019-02-21T04:20:59.641Z,75.30
2019-02-21T04:23:27.000Z,75.10
2019-02-21T04:25:54.868Z,75.30
2019-02-21T04:28:22.918Z,75.00
2019-02-21T04:30:50.559Z,74.90
2019-02-21T04:33:18.379Z,75.00
2019-02-21T04:35:46.124Z,75.10
2019-02-21T04:38:13.505Z,75.10
2019-02-21T04:40:40.850Z,75.30
2019-02-21T04:43:08.357Z,75.30
2019-02-21T04:45:35.959Z,75.50
2019-02-21T04:48:03.452Z,75.80
2019-02-21T04:50:31.259Z,75.40
2019-02-21T04:52:58.767Z,75.50
2019-02-21T04:55:26.122Z,76.00
2019-02-21T04:57:54.041Z,76.00
2019-02-21T05:00:21.485Z,75.80
2019-02-21T05:02:48.957Z,75.80
2019-02-21T05:05:17.621Z,75.70
2019-02-21T05:07:45.168Z,75.90
2019-02-21T05:10:13.247Z,75.10
2019-02-21T05:12:40.927Z,74.50
2019-02-21T05:15:08.288Z,75.00
2019-02-21T05:17:35.800Z,74.90
2019-02-21T05:20:03.873Z,75.50
2019-02-21T05:22:31.583Z,75.40
2019-02-21T05:24:59.092Z,76.00
2019-02-21T05:27:31.031Z,76.10
2019-02-21T05:29:58.762Z,76.80
2019-02-21T05:32:47.024Z,78.30
2019-02-21T05:35:20.533Z,78.70
2019-02-21T05:37:55.607Z,79.10
2019-02-21T05:40:42.075Z,79.10
2019-02-21T05:43:16.598Z,78.60
2019-02-21T05:46:10.100Z,78.10
2019-02-21T05:48:56.013Z,77.80
2019-02-21T05:51:49.397Z,77.70
2019-02-21T05:54:26.577Z,78.10
2019-02-21T05:56:59.065Z,77.60
2019-02-21T05:59:46.030Z,77.30
2019-02-21T06:02:39.150Z,77.20
2019-02-21T06:05:12.896Z,77.50
2019-02-21T06:07:58.648Z,77.60
2019-02-21T06:10:53.783Z,76.90
2019-02-21T06:13:34.894Z,76.70
2019-02-21T06:16:24.863Z,77.20
2019-02-21T06:19:08.676Z,77.40
2019-02-21T06:22:10.717Z,77.30
2019-02-21T06:24:44.320Z,77.60
2019-02-21T06:27:19.858Z,77.40
2019-02-21T06:30:03.396Z,76.50
2019-02-21T06:32:31.430Z,76.30
2019-02-21T06:34:59.000Z,76.80
2019-02-21T06:37:26.508Z,77.20
2019-02-21T06:39:53.994Z,77.30
2019-02-21T06:42:22.207Z,77.30
2019-02-21T06:44:49.723Z,78.00
2019-02-21T06:47:17.374Z,77.80
2019-02-21T06:49:45.043Z,77.90
2019-02-21T06:52:12.527Z,78.10
2019-02-21T06:54:40.053Z,77.90
2019-02-21T06:57:07.692Z,77.50
2019-02-21T06:59:42.499Z,78.00
2019-02-21T07:02:05.796Z,76.90
2019-02-21T07:04:33.521Z,76.70
2019-02-21T07:07:01.279Z,77.10
2019-02-21T07:09:30.033Z,77.10
2019-02-21T07:11:57.917Z,77.50
2019-02-21T07:14:25.668Z,77.80
2019-02-21T07:16:53.484Z,78.50
2019-02-21T07:19:20.997Z,78.70
2019-02-21T07:21:48.453Z,79.10
2019-02-21T07:24:18.096Z,79.20
2019-02-21T07:26:45.645Z,79.70
2019-02-21T07:29:13.172Z,79.70
2019-02-21T07:31:41.627Z,80.80
2019-02-21T07:34:09.120Z,81.00
2019-02-21T07:36:36.594Z,81.90
2019-02-21T07:39:16.482Z,82.60
2019-02-21T07:41:34.134Z,84.00
2019-02-21T07:44:11.710Z,85.00
2019-02-21T07:46:32.375Z,85.30
2019-02-21T07:49:00.288Z,85.10
2019-02-21T07:51:28.183Z,85.00
2019-02-21T07:53:55.945Z,85.00
2019-02-21T07:56:23.715Z,87.70
2019-02-21T07:58:51.327Z,88.60
2019-02-21T08:01:19.157Z,89.60
2019-02-21T08:03:48.558Z,89.60
2019-02-21T08:06:16.413Z,90.40
2019-02-21T08:08:45.034Z,88.00
2019-02-21T08:11:12.719Z,86.70
2019-02-21T08:13:40.616Z,86.60
2019-02-21T08:16:09.269Z,86.90
2019-02-21T08:18:36.881Z,87.70
2019-02-21T08:21:04.816Z,88.90
2019-02-21T08:23:32.609Z,88.30
2019-02-21T08:26:07.794Z,87.20
2019-02-21T08:28:36.310Z,87.50
2019-02-21T08:31:03.878Z,87.30
2019-02-21T08:33:58.049Z,87.50
2019-02-21T08:36:19.706Z,87.70
2019-02-21T08:38:47.444Z,88.50
2019-02-21T08:41:15.102Z,87.70
2019-02-21T08:43:42.731Z,87.90
2019-02-21T08:46:10.456Z,87.50
2019-02-21T08:48:40.426Z,88.10
2019-02-21T08:51:07.699Z,88.20
2019-02-21T08:53:35.329Z,88.00
2019-02-21T08:56:03.229Z,88.70
2019-02-21T08:58:31.847Z,89.60
2019-02-21T09:00:59.358Z,90.00
2019-02-21T09:03:28.470Z,88.50
2019-02-21T09:05:55.841Z,87.60
2019-02-21T09:08:33.130Z,86.40
2019-02-21T09:10:54.492Z,87.00
2019-02-21T09:13:23.877Z,86.40
2019-02-21T09:16:03.594Z,86.50
2019-02-21T09:18:31.154Z,87.00
2019-02-21T09:21:18.193Z,87.00
2019-02-21T09:23:45.685Z,88.50
2019-02-21T09:26:13.585Z,86.20
2019-02-21T09:28:40.984Z,84.80
2019-02-21T09:31:08.578Z,86.20
2019-02-21T09:33:37.264Z,83.10
2019-02-21T09:36:04.919Z,82.30
2019-02-21T09:38:34.688Z,79.00
2019-02-21T09:41:01.668Z,78.70
2019-02-21T09:43:29.425Z,77.30
2019-02-21T09:45:57.133Z,76.70
2019-02-21T09:48:24.531Z,77.00
2019-02-21T09:50:52.068Z,76.40
2019-02-21T09:53:19.770Z,75.90
2019-02-21T09:55:50.233Z,75.80
2019-02-21T09:58:17.535Z,75.80
2019-02-21T10:00:45.338Z,76.60
2019-02-21T10:03:12.947Z,75.90
2019-02-21T10:05:40.741Z,76.20
2019-02-21T10:08:08.260Z,73.90
2019-02-21T10:10:35.800Z,73.60
2019-02-21T10:13:03.328Z,73.40
2019-02-21T10:15:31.617Z,72.40
2019-02-21T10:17:59.055Z,71.70
2019-02-21T10:20:26.583Z,71.60
2019-02-21T10:22:54.291Z,71.30
2019-02-21T10:25:23.715Z,72.10
2019-02-21T10:27:51.119Z,71.60
2019-02-21T10:30:19.732Z,70.50
2019-02-21T10:32:47.259Z,72.10
2019-02-21T10:35:14.682Z,71.50
2019-02-21T10:37:42.203Z,70.90
2019-02-21T10:40:10.252Z,69.40
2019-02-21T10:42:38.646Z,69.40
2019-02-21T10:45:08.463Z,69.60
2019-02-21T10:47:35.924Z,69.80
2019-02-21T10:50:04.451Z,69.80
2019-02-21T10:52:31.938Z,70.10
2019-02-21T10:54:59.835Z,70.50
2019-02-21T10:57:27.526Z,71.00
2019-02-21T10:59:55.352Z,70.90
2019-02-21T11:02:23.110Z,70.20
2019-02-21T11:04:54.908Z,70.00
2019-02-21T11:07:19.875Z,69.70
2019-02-21T11:09:47.562Z,69.20
2019-02-21T11:12:15.089Z,68.80
2019-02-21T11:14:47.478Z,69.20
2019-02-21T11:17:12.592Z,69.20
2019-02-21T11:19:40.358Z,69.10
2019-02-21T11:22:08.208Z,68.70
2019-02-21T11:24:35.835Z,68.20
2019-02-21T11:27:03.366Z,68.20
2019-02-21T11:29:31.616Z,67.10
2019-02-21T11:31:59.062Z,66.90
2019-02-21T11:34:26.432Z,68.50
2019-02-21T11:36:54.384Z,66.70
2019-02-21T11:39:22.147Z,66.90
2019-02-21T11:41:49.716Z,66.50
2019-02-21T11:44:17.732Z,65.00
2019-02-21T11:46:45.184Z,65.20
2019-02-21T11:49:12.631Z,63.00
2019-02-21T11:51:40.768Z,63.40
2019-02-21T11:54:09.549Z,64.00
2019-02-21T11:56:36.967Z,61.50
2019-02-21T11:59:04.398Z,60.80
2019-02-21T12:01:31.971Z,61.10
2019-02-21T12:03:59.924Z,63.80
2019-02-21T12:06:27.379Z,64.00
2019-02-21T12:08:55.416Z,61.90
2019-02-21T12:11:23.280Z,63.20
2019-02-21T12:13:51.145Z,61.30
2019-02-21T12:16:18.517Z,63.40
2019-02-21T12:18:45.880Z,60.80
2019-02-21T12:21:13.403Z,60.10
2019-02-21T12:23:41.201Z,60.90
2019-02-21T12:26:08.698Z,60.60
2019-02-21T12:28:36.429Z,62.00
2019-02-21T12:31:04.306Z,61.30
2019-02-21T12:33:31.659Z,62.00
2019-02-21T12:35:59.640Z,60.70
2019-02-21T12:38:27.666Z,60.80
2019-02-21T12:40:56.362Z,60.70
2019-02-21T12:43:23.814Z,60.90
2019-02-21T12:45:57.753Z,61.10
2019-02-21T12:48:25.479Z,59.60
2019-02-21T12:50:53.852Z,60.20
2019-02-21T12:53:21.472Z,60.60
2019-02-21T12:55:49.066Z,60.70
2019-02-21T12:58:16.832Z,62.60
2019-02-21T13:00:44.703Z,59.80
2019-02-21T13:03:12.098Z,61.40
2019-02-21T13:05:41.333Z,58.90
2019-02-21T13:08:09.350Z,58.20
2019-02-21T13:10:36.948Z,59.30
2019-02-21T13:13:04.654Z,59.40
2019-02-21T13:15:32.492Z,57.80
2019-02-21T13:17:59.891Z,56.60
2019-02-21T13:20:27.261Z,56.60
2019-02-21T13:22:55.093Z,57.50
2019-02-21T13:25:22.692Z,55.90
2019-02-21T13:27:50.105Z,54.40
2019-02-21T13:30:17.654Z,54.20
2019-02-21T13:32:46.123Z,53.80
2019-02-21T13:35:13.783Z,55.00
2019-02-21T13:37:41.305Z,54.90
2019-02-21T13:40:10.425Z,56.60
2019-02-21T13:42:38.337Z,55.40
2019-02-21T13:45:06.144Z,58.20
2019-02-21T13:47:33.576Z,55.80
2019-02-21T13:50:01.082Z,55.30
2019-02-21T13:52:32.253Z,57.40
2019-02-21T13:54:59.652Z,56.40
2019-02-21T13:57:27.370Z,58.00
2019-02-21T13:59:54.998Z,57.90
2019-02-21T14:02:22.497Z,57.20
2019-02-21T14:04:49.903Z,57.30
2019-02-21T14:07:17.518Z,57.40
2019-02-21T14:09:44.982Z,57.20
2019-02-21T14:12:12.717Z,56.10
2019-02-21T14:14:42.399Z,56.00
2019-02-21T14:17:09.519Z,56.80
2019-02-21T14:19:37.420Z,57.40
2019-02-21T14:22:04.919Z,58.20
2019-02-21T14:24:36.719Z,59.40
2019-02-21T14:27:01.662Z,59.50
2019-02-21T14:29:38.743Z,59.80
2019-02-21T14:31:59.042Z,58.30
2019-02-21T14:34:26.690Z,57.40
2019-02-21T14:36:54.044Z,57.50
2019-02-21T14:39:21.416Z,57.60
2019-02-21T14:41:48.770Z,58.00
2019-02-21T14:44:16.630Z,58.90
2019-02-21T14:46:44.497Z,57.80
2019-02-21T14:49:12.264Z,57.30
2019-02-21T14:51:40.977Z,57.50
2019-02-21T14:54:08.513Z,58.30
2019-02-21T14:56:36.050Z,58.00
2019-02-21T14:59:03.552Z,57.80
2019-02-21T15:01:31.056Z,57.80
2019-02-21T15:03:58.990Z,59.00
2019-02-21T15:06:27.694Z,58.70
2019-02-21T15:08:55.389Z,57.00
2019-02-21T15:11:24.083Z,56.80
2019-02-21T15:13:51.856Z,58.50
2019-02-21T15:16:19.824Z,58.00
2019-02-21T15:18:47.684Z,57.40
2019-02-21T15:21:15.182Z,56.80
2019-02-21T15:23:42.587Z,57.30
2019-02-21T15:26:10.422Z,56.80
2019-02-21T15:28:37.789Z,56.10
2019-02-21T15:31:05.255Z,55.50
2019-02-21T15:33:32.659Z,56.00
2019-02-21T15:36:00.135Z,56.50
2019-02-21T15:38:27.924Z,55.80
2019-02-21T15:40:55.588Z,55.70
2019-02-21T15:43:23.482Z,56.70
2019-02-21T15:45:50.990Z,56.80
2019-02-21T15:48:18.700Z,56.90
2019-02-21T15:50:46.419Z,56.70
2019-02-21T15:53:13.984Z,56.60
2019-02-21T15:55:41.463Z,57.20
2019-02-21T15:58:08.979Z,56.70
2019-02-21T16:00:36.462Z,57.10
2019-02-21T16:03:05.400Z,56.70
2019-02-21T16:05:32.813Z,56.90
2019-02-21T16:08:00.324Z,56.90
2019-02-21T16:10:27.861Z,56.10
2019-02-21T16:12:55.320Z,56.40
2019-02-21T16:15:23.010Z,56.70
2019-02-21T16:17:50.533Z,56.70
2019-02-21T16:20:17.995Z,58.50
2019-02-21T16:22:45.545Z,59.00
2019-02-21T16:25:15.143Z,58.40
2019-02-21T16:27:43.007Z,58.20
2019-02-21T16:30:12.793Z,59.20
2019-02-21T16:32:40.255Z,59.00
2019-02-21T16:35:09.564Z,58.40
2019-02-21T16:37:37.674Z,59.00
2019-02-21T16:40:06.760Z,59.10
2019-02-21T16:42:34.207Z,59.40
2019-02-21T16:45:01.718Z,59.40
2019-02-21T16:47:29.659Z,59.60
2019-02-21T16:49:58.368Z,58.80
2019-02-21T16:52:26.180Z,58.20
2019-02-21T16:54:54.148Z,57.60
2019-02-21T16:57:24.632Z,57.00
2019-02-21T16:59:52.376Z,57.10
2019-02-21T17:02:19.919Z,56.60
2019-02-21T17:04:47.698Z,56.50
2019-02-21T17:07:20.042Z,56.30
2019-02-21T17:09:45.055Z,56.50
2019-02-21T17:12:12.535Z,56.30
2019-02-21T17:14:40.479Z,56.30
2019-02-21T17:17:07.834Z,56.80
2019-02-21T17:19:35.474Z,56.20
2019-02-21T17:22:02.982Z,56.30
2019-02-21T17:24:30.859Z,56.60
2019-02-21T17:27:00.018Z,56.60
2019-02-21T17:29:28.807Z,57.20
2019-02-21T17:31:56.206Z,57.50
2019-02-21T17:34:25.346Z,56.60
2019-02-21T17:36:53.157Z,56.20
2019-02-21T17:39:20.510Z,56.60
2019-02-21T17:41:48.277Z,56.70
2019-02-21T17:44:15.950Z,57.30
2019-02-21T17:46:43.307Z,57.30
2019-02-21T17:49:10.914Z,56.80
2019-02-21T17:51:38.425Z,56.10
2019-02-21T17:54:06.956Z,55.90
2019-02-21T17:56:34.672Z,55.60
2019-02-21T17:59:02.390Z,55.50
2019-02-21T18:01:30.689Z,56.00
2019-02-21T18:04:00.628Z,56.20
2019-02-21T18:06:28.245Z,56.50
2019-02-21T18:08:55.783Z,56.60
2019-02-21T18:11:24.128Z,56.40
2019-02-21T18:13:51.910Z,56.70
2019-02-21T18:16:19.711Z,56.70
2019-02-21T18:18:47.121Z,56.60
2019-02-21T18:21:14.476Z,56.70
2019-02-21T18:23:42.403Z,57.20
2019-02-21T18:26:17.892Z,57.00
2019-02-21T18:28:45.554Z,57.00
2019-02-21T18:31:20.828Z,57.10
2019-02-21T18:33:48.212Z,57.40
2019-02-21T18:36:15.716Z,57.50
2019-02-21T18:38:43.516Z,57.50
2019-02-21T18:41:11.684Z,57.70
2019-02-21T18:43:39.343Z,57.90
2019-02-21T18:46:07.895Z,58.30
2019-02-21T18:48:35.913Z,59.30
2019-02-21T18:51:03.271Z,59.80
2019-02-21T18:53:31.100Z,59.40
2019-02-21T18:55:58.492Z,59.20
2019-02-21T18:58:26.328Z,59.30
2019-02-21T19:00:53.845Z,59.30
2019-02-21T19:03:21.358Z,59.30
2019-02-21T19:05:48.959Z,59.60
2019-02-21T19:08:16.336Z,59.60
2019-02-21T19:10:44.354Z,59.90
2019-02-21T19:15:53.443Z,60.40
2019-02-21T19:18:20.910Z,61.00
2019-02-21T19:20:48.480Z,61.50
2019-02-21T19:23:16.301Z,61.90
2019-02-21T19:25:43.652Z,61.90
2019-02-21T19:28:11.118Z,61.60
2019-02-21T19:30:42.197Z,61.40
2019-02-21T19:33:09.778Z,61.70
2019-02-21T19:35:37.283Z,62.10
2019-02-21T19:38:10.432Z,62.00
2019-02-21T19:40:34.873Z,61.80
2019-02-21T19:43:02.557Z,61.70
2019-02-21T19:45:29.905Z,62.30
2019-02-21T19:47:57.400Z,62.00
2019-02-21T19:50:25.312Z,62.10
2019-02-21T19:52:53.219Z,62.40
2019-02-21T19:55:21.408Z,62.50
2019-02-21T19:57:48.921Z,63.40
2019-02-21T20:00:18.542Z,64.30
2019-02-21T20:02:46.596Z,64.80
2019-02-21T20:05:14.173Z,64.60
2019-02-21T20:07:41.915Z,64.00
2019-02-21T20:10:09.389Z,64.20
2019-02-21T20:12:37.433Z,64.30
2019-02-21T20:15:05.701Z,64.20
2019-02-21T20:17:33.948Z,64.50
2019-02-21T20:20:01.809Z,65.00
2019-02-21T20:22:30.084Z,65.20
2019-02-21T20:24:57.558Z,64.60
2019-02-21T20:27:25.149Z,64.70
2019-02-21T20:29:52.642Z,64.80
2019-02-21T20:32:20.632Z,64.60
2019-02-21T20:34:48.153Z,65.00
2019-02-21T20:37:15.950Z,65.10
2019-02-21T20:39:43.821Z,65.80
2019-02-21T20:42:11.417Z,65.80
2019-02-21T20:44:39.125Z,65.60
2019-02-21T20:47:06.717Z,65.60
2019-02-21T20:49:34.252Z,65.60
2019-02-21T20:52:02.129Z,65.50
2019-02-21T20:54:29.945Z,65.10
2019-02-21T20:56:57.755Z,65.50
2019-02-21T20:59:25.118Z,65.00
2019-02-21T21:01:53.667Z,65.70
2019-02-21T21:04:21.865Z,65.70
2019-02-21T21:06:49.489Z,65.30
2019-02-21T21:09:17.094Z,65.90
2019-02-21T21:11:44.879Z,65.80
2019-02-21T21:14:12.717Z,66.20
2019-02-21T21:16:40.188Z,66.60
2019-02-21T21:19:07.869Z,67.30
2019-02-21T21:21:35.341Z,67.10
2019-02-21T21:24:04.089Z,66.80
2019-02-21T21:26:31.498Z,66.60
2019-02-21T21:28:59.105Z,66.60
2019-02-21T21:31:27.066Z,67.00
2019-02-21T21:33:54.795Z,66.60
2019-02-21T21:36:22.705Z,67.20
2019-02-21T21:38:54.174Z,67.90
2019-02-21T21:41:19.953Z,68.00
2019-02-21T21:43:47.289Z,67.80
2019-02-21T21:46:14.816Z,68.10
2019-02-21T21:48:42.265Z,67.80
2019-02-21T21:51:09.542Z,67.70
2019-02-21T21:53:37.088Z,68.80
2019-02-21T21:56:04.593Z,68.80
2019-02-21T21:58:32.137Z,68.90
2019-02-21T22:00:59.827Z,68.80
2019-02-21T22:03:27.341Z,69.10
2019-02-21T22:05:54.729Z,69.20
2019-02-21T22:08:22.215Z,69.10
2019-02-21T22:10:50.524Z,69.20
2019-02-21T22:13:18.753Z,69.50
2019-02-21T22:15:46.515Z,69.40
2019-02-21T22:18:13.969Z,69.60
2019-02-21T22:20:41.750Z,69.30
2019-02-21T22:23:09.277Z,69.30
2019-02-21T22:25:37.385Z,69.90
2019-02-21T22:28:06.062Z,69.50
2019-02-21T22:30:33.654Z,69.60
2019-02-21T22:33:01.514Z,69.50
2019-02-21T22:35:29.023Z,69.60
2019-02-21T22:37:56.366Z,69.60
2019-02-21T22:40:24.150Z,69.50
2019-02-21T22:42:51.807Z,69.60
2019-02-21T22:45:19.888Z,69.60
2019-02-21T22:47:47.761Z,69.90
2019-02-21T22:50:15.145Z,69.60
2019-02-21T22:52:42.761Z,69.80
2019-02-21T22:55:10.542Z,70.20
2019-02-21T22:57:38.525Z,70.60
2019-02-21T23:00:58.855Z,69.20
2019-02-21T23:03:30.944Z,71.10
2019-02-21T23:06:43.138Z,71.50
2019-02-21T23:09:27.086Z,70.70
2019-02-21T23:11:48.252Z,70.60
2019-02-21T23:14:16.090Z,70.50
2019-02-21T23:16:43.488Z,70.30
2019-02-21T23:19:10.971Z,70.80
2019-02-21T23:21:38.407Z,71.70
2019-02-21T23:24:06.613Z,71.90
2019-02-21T23:26:34.405Z,72.10
2019-02-21T23:29:02.059Z,71.70
2019-02-21T23:31:29.933Z,71.80
2019-02-21T23:33:58.227Z,71.80
2019-02-21T23:36:26.059Z,72.70
2019-02-21T23:38:53.860Z,74.70
2019-02-21T23:41:21.909Z,75.70
2019-02-21T23:43:49.871Z,75.50
2019-02-21T23:46:17.751Z,75.70
2019-02-21T23:48:45.211Z,75.70
2019-02-21T23:51:12.700Z,74.20
2019-02-21T23:53:40.297Z,74.20
2019-02-21T23:56:07.662Z,73.90
2019-02-21T23:58:35.249Z,73.50
